Time;durP1;ratioP1;P1;durP2;ratioP2;P2;SDS_P1;SDS_P2;PMS_P1;PMS_P2;Temp;Humidity;BMP_temperature;BMP_pressure;BME280_temperature;BME280_humidity;BME280_pressure;Samples;Min_cycle;Max_cycle;Signal;HPM_P1;HPM_P2
2022/03/11 00:00:00;;;;;;;9.60;5.55;;;7.30;83.50;;;;;;4882769;29;20039;-87
2022/03/11 00:02:29;;;;;;;9.35;5.97;;;7.20;83.20;;;;;;4896473;29;20100;-87
2022/03/11 00:04:54;;;;;;;9.05;4.78;;;7.20;83.40;;;;;;4882768;29;20039;-87
2022/03/11 00:07:23;;;;;;;9.27;5.40;;;7.10;83.40;;;;;;4883084;29;20122;-85
2022/03/11 00:09:50;;;;;;;9.20;5.43;;;7.10;83.20;;;;;;4920649;29;20047;-87
2022/03/11 00:12:19;;;;;;;8.32;5.00;;;7.10;83.50;;;;;;4909070;29;20033;-86
2022/03/11 00:14:45;;;;;;;9.88;5.38;;;7.00;83.60;;;;;;4879614;29;20040;-85
2022/03/11 00:17:10;;;;;;;8.70;5.72;;;7.00;83.70;;;;;;4893626;29;20040;-86
2022/03/11 00:19:36;;;;;;;8.93;5.28;;;7.00;84.00;;;;;;4909971;29;20071;-85
2022/03/11 00:22:02;;;;;;;9.00;5.13;;;7.00;84.20;;;;;;4898486;29;20044;-86
2022/03/11 00:24:37;;;;;;;9.45;4.82;;;6.90;84.30;;;;;;4893937;29;20083;-87
2022/03/11 00:27:02;;;;;;;8.43;5.05;;;6.90;85.20;;;;;;4894817;29;20048;-86
2022/03/11 00:29:30;;;;;;;6.40;4.38;;;6.80;84.60;;;;;;4890306;29;20790;-87
2022/03/11 00:31:56;;;;;;;8.13;4.90;;;6.80;84.70;;;;;;4928095;29;20106;-86
2022/03/11 00:34:22;;;;;;;9.15;5.65;;;6.70;84.70;;;;;;4905776;29;20048;-86
2022/03/11 00:36:47;;;;;;;10.50;5.05;;;6.70;84.70;;;;;;4895870;29;20506;-87
2022/03/11 00:39:13;;;;;;;8.10;5.20;;;6.70;84.60;;;;;;4893831;29;20573;-87
2022/03/11 00:41:39;;;;;;;9.05;5.82;;;6.70;84.70;;;;;;4910813;29;20561;-85
2022/03/11 00:44:05;;;;;;;10.90;5.65;;;6.70;85.30;;;;;;4913092;29;20036;-87
2022/03/11 00:46:31;;;;;;;8.93;5.43;;;6.60;84.80;;;;;;4894085;29;20024;-86
2022/03/11 00:48:57;;;;;;;9.73;6.53;;;6.70;85.50;;;;;;4878470;29;20100;-86
2022/03/11 00:51:22;;;;;;;9.70;6.03;;;6.60;84.90;;;;;;4907378;29;20040;-88
2022/03/11 00:53:48;;;;;;;9.25;5.47;;;6.60;85.10;;;;;;4905597;29;20040;-86
2022/03/11 00:56:13;;;;;;;10.23;6.32;;;6.60;85.20;;;;;;4894814;29;20049;-86
2022/03/11 00:58:39;;;;;;;11.77;6.28;;;6.60;85.10;;;;;;4880201;29;20525;-86
2022/03/11 01:01:05;;;;;;;10.80;6.28;;;6.50;85.40;;;;;;4904186;29;20156;-84
2022/03/11 01:03:30;;;;;;;10.48;6.55;;;6.50;85.50;;;;;;4915006;29;20057;-88
2022/03/11 01:05:56;;;;;;;13.02;6.65;;;6.50;85.60;;;;;;4899811;29;20487;-87
2022/03/11 01:08:22;;;;;;;10.63;6.85;;;6.40;86.40;;;;;;4893122;29;20115;-86
2022/03/11 01:10:47;;;;;;;10.68;6.05;;;6.40;86.30;;;;;;4906742;29;20036;-86
2022/03/11 01:13:13;;;;;;;10.40;6.13;;;6.40;86.40;;;;;;4917075;29;20047;-86
2022/03/11 01:15:39;;;;;;;10.30;6.53;;;6.40;86.60;;;;;;4915398;29;20852;-86
2022/03/11 01:18:04;;;;;;;10.05;6.32;;;6.30;86.70;;;;;;4895520;29;20438;-85
2022/03/11 01:20:30;;;;;;;10.10;6.30;;;6.30;86.70;;;;;;4905233;29;20032;-86
2022/03/11 01:22:56;;;;;;;12.45;6.50;;;6.30;86.80;;;;;;4896219;29;20044;-86
2022/03/11 01:25:21;;;;;;;11.50;6.88;;;6.20;86.90;;;;;;4896550;29;20571;-88
2022/03/11 01:27:47;;;;;;;11.85;7.18;;;6.20;87.20;;;;;;4900056;29;20555;-87
2022/03/11 01:30:21;;;;;;;11.20;7.35;;;6.20;87.20;;;;;;4910778;29;20139;-88
2022/03/11 01:32:50;;;;;;;11.15;6.75;;;6.20;87.30;;;;;;4908269;29;20035;-87
2022/03/11 01:35:16;;;;;;;12.50;7.50;;;6.10;87.40;;;;;;4900025;29;20582;-85
2022/03/11 01:37:43;;;;;;;13.55;6.60;;;6.10;87.70;;;;;;4890900;29;20060;-86
2022/03/11 01:40:09;;;;;;;10.68;6.65;;;6.10;87.80;;;;;;4896559;29;20052;-86
2022/03/11 01:42:36;;;;;;;11.13;7.05;;;6.00;87.80;;;;;;4880633;29;20478;-88
2022/03/11 01:45:03;;;;;;;11.98;6.82;;;6.00;87.80;;;;;;4880889;29;20109;-85
2022/03/11 01:47:29;;;;;;;12.95;7.63;;;6.00;88.00;;;;;;4891834;29;20028;-86
2022/03/11 01:49:54;;;;;;;10.88;7.50;;;5.90;88.00;;;;;;4896509;29;20566;-87
2022/03/11 01:52:21;;;;;;;11.10;7.13;;;5.90;88.30;;;;;;4879160;29;20029;-85
2022/03/11 01:54:47;;;;;;;10.02;6.05;;;5.80;88.30;;;;;;4906955;29;20111;-86
2022/03/11 01:57:15;;;;;;;10.02;6.75;;;5.80;88.30;;;;;;4895993;29;20147;-86
2022/03/11 01:59:41;;;;;;;10.88;7.05;;;5.70;88.60;;;;;;4898091;29;20487;-86
2022/03/11 02:02:07;;;;;;;12.15;6.70;;;5.70;88.70;;;;;;4895916;29;20043;-86
2022/03/11 02:04:33;;;;;;;12.38;7.68;;;5.70;88.90;;;;;;4879186;29;20037;-86
2022/03/11 02:06:59;;;;;;;11.50;7.15;;;5.60;88.90;;;;;;4893796;29;20020;-84
2022/03/11 02:09:24;;;;;;;10.88;7.40;;;5.60;89.00;;;;;;4908472;29;20067;-85
2022/03/11 02:11:50;;;;;;;12.63;7.65;;;5.60;89.40;;;;;;4894276;29;20032;-86
2022/03/11 02:14:16;;;;;;;13.88;8.00;;;5.60;89.50;;;;;;4878540;29;20092;-86
2022/03/11 02:16:42;;;;;;;12.50;7.70;;;5.60;90.00;;;;;;4893724;29;20037;-85
2022/03/11 02:19:07;;;;;;;12.30;7.70;;;5.50;90.10;;;;;;4893979;29;20060;-85
2022/03/11 02:21:45;;;;;;;13.10;7.32;;;5.50;90.10;;;;;;4893737;29;20661;-86
2022/03/11 02:24:11;;;;;;;12.05;7.82;;;5.50;90.00;;;;;;4895184;29;20053;-86
2022/03/11 02:26:36;;;;;;;12.00;7.30;;;5.40;90.10;;;;;;4879975;29;20535;-87
2022/03/11 02:29:03;;;;;;;10.98;6.90;;;5.40;90.10;;;;;;4909772;29;20518;-86
2022/03/11 02:31:31;;;;;;;12.77;7.07;;;5.40;90.20;;;;;;4898535;29;20384;-86
2022/03/11 02:33:58;;;;;;;13.35;7.32;;;5.30;90.30;;;;;;4881863;29;20024;-87
2022/03/11 02:36:24;;;;;;;11.30;6.68;;;5.30;90.50;;;;;;4894474;29;20036;-85
2022/03/11 02:38:51;;;;;;;13.30;6.95;;;5.30;90.30;;;;;;4906506;29;20059;-86
2022/03/11 02:41:17;;;;;;;10.82;6.25;;;5.20;90.40;;;;;;4897654;29;20554;-85
2022/03/11 02:43:43;;;;;;;10.45;6.88;;;5.20;90.50;;;;;;4894703;29;20044;-85
2022/03/11 02:46:10;;;;;;;11.95;7.88;;;5.20;90.70;;;;;;4896154;29;20033;-84
2022/03/11 02:48:35;;;;;;;12.70;7.88;;;5.20;90.70;;;;;;4882967;29;20108;-86
2022/03/11 02:51:01;;;;;;;11.75;7.47;;;5.10;90.60;;;;;;4911705;29;20063;-86
2022/03/11 02:53:27;;;;;;;10.50;6.93;;;5.10;90.70;;;;;;4902710;29;20044;-84
2022/03/11 02:55:53;;;;;;;10.38;6.72;;;5.10;90.80;;;;;;4902974;29;20052;-85
2022/03/11 02:58:19;;;;;;;11.93;7.25;;;5.10;90.90;;;;;;4907929;29;20063;-86
2022/03/11 03:00:45;;;;;;;12.27;7.10;;;5.00;91.00;;;;;;4907577;29;20108;-84
2022/03/11 03:03:11;;;;;;;11.90;7.85;;;5.00;91.10;;;;;;4907883;29;20195;-84
2022/03/11 03:05:37;;;;;;;10.85;7.05;;;5.00;91.10;;;;;;4883176;29;20048;-85
2022/03/11 03:08:03;;;;;;;11.40;7.13;;;5.00;91.20;;;;;;4896360;29;20033;-87
2022/03/11 03:10:29;;;;;;;10.07;6.35;;;5.00;91.30;;;;;;4902474;29;20506;-86
2022/03/11 03:12:55;;;;;;;10.55;7.03;;;5.00;91.40;;;;;;4897166;29;20067;-87
2022/03/11 03:15:20;;;;;;;10.88;7.00;;;5.00;91.50;;;;;;4900863;29;20039;-87
2022/03/11 03:17:46;;;;;;;10.43;6.63;;;5.00;91.50;;;;;;4898995;29;20120;-86
2022/03/11 03:20:12;;;;;;;10.95;6.85;;;5.00;91.60;;;;;;4901354;29;20040;-86
2022/03/11 03:22:38;;;;;;;10.45;6.82;;;4.90;91.60;;;;;;4898352;29;20045;-87
2022/03/11 03:25:04;;;;;;;10.68;7.15;;;4.90;91.70;;;;;;4897479;29;20108;-86
2022/03/11 03:27:31;;;;;;;11.77;7.93;;;4.90;91.80;;;;;;4898170;29;20052;-85
2022/03/11 03:29:57;;;;;;;11.30;6.95;;;4.90;91.90;;;;;;4882286;29;20029;-86
2022/03/11 03:32:22;;;;;;;11.23;7.07;;;4.90;91.90;;;;;;4899133;29;20472;-86
2022/03/11 03:34:48;;;;;;;11.02;7.25;;;4.80;92.00;;;;;;4898792;29;20041;-85
2022/03/11 03:37:14;;;;;;;10.95;7.00;;;4.80;92.10;;;;;;4898689;29;20033;-85
2022/03/11 03:39:41;;;;;;;11.73;8.27;;;4.80;92.20;;;;;;4899343;29;20041;-85
2022/03/11 03:42:08;;;;;;;12.32;7.78;;;4.80;92.40;;;;;;4882446;29;20106;-85
2022/03/11 03:44:34;;;;;;;11.60;7.28;;;4.80;92.40;;;;;;4897726;29;20033;-85
2022/03/11 03:47:00;;;;;;;11.63;7.13;;;4.80;92.30;;;;;;4899072;29;20028;-86
2022/03/11 03:49:26;;;;;;;11.43;7.97;;;4.80;92.40;;;;;;4897767;29;20037;-86
2022/03/11 03:51:52;;;;;;;11.90;8.13;;;4.80;92.40;;;;;;4898027;29;20149;-87
2022/03/11 03:54:18;;;;;;;12.80;7.72;;;4.80;92.50;;;;;;4898946;29;20049;-87
2022/03/11 03:56:45;;;;;;;12.25;7.97;;;4.80;92.70;;;;;;4898234;29;20039;-86
2022/03/11 03:59:12;;;;;;;12.48;7.95;;;4.80;92.70;;;;;;4903126;29;20116;-85
2022/03/11 04:01:39;;;;;;;11.13;7.65;;;4.70;92.80;;;;;;4905004;29;20037;-86
2022/03/11 04:04:07;;;;;;;14.10;7.22;;;4.80;92.80;;;;;;4898945;29;20033;-86
2022/03/11 04:06:34;;;;;;;11.45;7.50;;;4.70;92.90;;;;;;4882418;29;20040;-86
2022/03/11 04:09:00;;;;;;;12.20;7.18;;;4.70;92.90;;;;;;4897620;29;20123;-87
2022/03/11 04:11:28;;;;;;;11.15;7.40;;;4.70;93.00;;;;;;4897815;29;20032;-86
2022/03/11 04:13:55;;;;;;;11.23;7.32;;;4.70;93.00;;;;;;4898200;29;20033;-87
2022/03/11 04:16:20;;;;;;;11.50;7.53;;;4.70;93.00;;;;;;4898052;29;20085;-85
2022/03/11 04:18:47;;;;;;;11.07;7.68;;;4.70;93.00;;;;;;4897876;29;20053;-86
2022/03/11 04:21:13;;;;;;;12.68;8.43;;;4.70;93.00;;;;;;4898859;29;20040;-87
2022/03/11 04:23:44;;;;;;;12.18;7.60;;;4.70;93.30;;;;;;4897365;29;20522;-86
2022/03/11 04:26:10;;;;;;;12.38;7.97;;;4.70;93.30;;;;;;4897749;29;20100;-86
2022/03/11 04:28:37;;;;;;;11.90;7.07;;;4.60;93.60;;;;;;4898367;29;20036;-86
2022/03/11 04:31:04;;;;;;;14.23;9.10;;;4.60;93.40;;;;;;4900578;29;20048;-87
2022/03/11 04:33:29;;;;;;;12.10;7.85;;;4.60;93.40;;;;;;4902618;29;20119;-87
2022/03/11 04:35:57;;;;;;;11.90;7.78;;;4.60;93.40;;;;;;4900565;29;20526;-87
2022/03/11 04:38:23;;;;;;;11.75;7.95;;;4.60;93.50;;;;;;4902287;29;20104;-87
2022/03/11 04:40:48;;;;;;;11.70;7.57;;;4.60;93.60;;;;;;4902171;29;20040;-86
2022/03/11 04:43:14;;;;;;;11.60;7.28;;;4.50;93.70;;;;;;4901296;29;20088;-86
2022/03/11 04:45:40;;;;;;;11.82;7.90;;;4.50;93.70;;;;;;4901232;29;20036;-86
2022/03/11 04:48:06;;;;;;;12.30;7.78;;;4.50;93.80;;;;;;4900932;29;20037;-86
2022/03/11 04:50:32;;;;;;;10.88;7.05;;;4.50;93.80;;;;;;4900970;29;20040;-86
2022/03/11 04:52:58;;;;;;;10.48;6.72;;;4.50;93.90;;;;;;4902216;29;20044;-86
2022/03/11 04:55:23;;;;;;;14.05;8.02;;;4.50;93.90;;;;;;4902568;29;20396;-86
2022/03/11 04:57:49;;;;;;;12.35;7.55;;;4.50;93.90;;;;;;4901939;29;20123;-87
2022/03/11 05:00:15;;;;;;;11.75;7.18;;;4.40;93.90;;;;;;4902115;29;20550;-86
2022/03/11 05:02:44;;;;;;;13.10;7.18;;;4.40;94.10;;;;;;4901825;29;20024;-87
2022/03/11 05:05:11;;;;;;;13.30;7.88;;;4.40;94.10;;;;;;4901241;29;20104;-87
2022/03/11 05:07:37;;;;;;;13.18;8.00;;;4.40;94.20;;;;;;4885499;29;20487;-86
2022/03/11 05:10:07;;;;;;;12.68;7.72;;;4.40;94.20;;;;;;4900687;29;20701;-87
2022/03/11 05:12:35;;;;;;;12.75;7.68;;;4.30;94.50;;;;;;4900525;29;20103;-87
2022/03/11 05:15:02;;;;;;;12.00;7.55;;;4.30;94.40;;;;;;4900990;29;20454;-86
2022/03/11 05:17:28;;;;;;;13.63;7.40;;;4.30;94.50;;;;;;4900667;29;20108;-87
2022/03/11 05:19:53;;;;;;;10.90;7.13;;;4.30;94.60;;;;;;4900879;29;20373;-84
2022/03/11 05:22:20;;;;;;;13.55;6.80;;;4.20;94.60;;;;;;4901831;29;20052;-86
2022/03/11 05:24:46;;;;;;;12.40;7.30;;;4.20;94.70;;;;;;4884790;29;20522;-86
2022/03/11 05:27:11;;;;;;;11.95;6.97;;;4.20;94.80;;;;;;4885044;29;20139;-87
2022/03/11 05:29:37;;;;;;;13.82;7.00;;;4.30;94.90;;;;;;4900910;29;20537;-87
2022/03/11 05:32:03;;;;;;;11.70;7.00;;;4.20;94.90;;;;;;4900826;29;20493;-86
2022/03/11 05:34:29;;;;;;;13.43;7.60;;;4.20;95.00;;;;;;4900898;29;20033;-86
2022/03/11 05:36:55;;;;;;;12.05;7.82;;;4.20;95.10;;;;;;4901127;29;20092;-87
2022/03/11 05:39:20;;;;;;;13.40;7.38;;;4.20;95.20;;;;;;4910022;29;20064;-84
2022/03/11 05:41:46;;;;;;;15.13;8.65;;;4.10;95.10;;;;;;4914608;29;20100;-83
2022/03/11 05:44:22;;;;;;;11.25;6.78;;;4.10;95.20;;;;;;4898870;29;20063;-84
2022/03/11 05:46:50;;;;;;;11.25;7.35;;;4.20;95.30;;;;;;4932681;29;20092;-84
2022/03/11 05:49:16;;;;;;;10.48;6.65;;;4.20;95.40;;;;;;4919016;29;20555;-86
2022/03/11 05:51:41;;;;;;;11.25;7.00;;;4.10;95.50;;;;;;4943661;29;20040;-85
2022/03/11 05:54:07;;;;;;;11.63;7.25;;;4.10;95.50;;;;;;4927307;29;20052;-87
2022/03/11 05:56:34;;;;;;;13.10;7.55;;;4.10;95.60;;;;;;4926586;29;21228;-86
2022/03/11 05:59:00;;;;;;;11.40;7.28;;;4.10;95.70;;;;;;4926835;29;20040;-86
2022/03/11 06:01:26;;;;;;;11.75;6.95;;;4.10;95.80;;;;;;4941581;29;20032;-85
2022/03/11 06:03:52;;;;;;;12.02;7.03;;;4.10;95.80;;;;;;4923202;29;20044;-86
2022/03/11 06:06:18;;;;;;;11.05;6.90;;;4.10;95.90;;;;;;4924732;29;20032;-87
2022/03/11 06:08:44;;;;;;;11.85;7.03;;;4.10;95.90;;;;;;4938894;29;20076;-85
2022/03/11 06:11:10;;;;;;;10.07;6.50;;;4.10;96.00;;;;;;4941824;29;20075;-87
2022/03/11 06:13:36;;;;;;;11.75;6.80;;;4.10;96.10;;;;;;4935518;29;20296;-85
2022/03/11 06:16:03;;;;;;;12.73;7.57;;;4.10;96.10;;;;;;4921758;29;20069;-86
2022/03/11 06:18:29;;;;;;;11.70;7.13;;;4.00;96.20;;;;;;4910733;29;20052;-87
2022/03/11 06:20:56;;;;;;;13.05;7.50;;;4.00;96.20;;;;;;4906858;29;20025;-87
2022/03/11 06:23:22;;;;;;;14.20;7.60;;;4.10;96.40;;;;;;4913078;29;20087;-85
2022/03/11 06:25:49;;;;;;;10.68;6.80;;;4.10;96.70;;;;;;4919670;29;20419;-85
2022/03/11 06:28:14;;;;;;;10.07;6.60;;;4.10;96.40;;;;;;4916383;29;20035;-84
2022/03/11 06:30:40;;;;;;;12.57;7.55;;;4.10;96.40;;;;;;4932858;29;20020;-86
2022/03/11 06:33:06;;;;;;;12.48;6.90;;;4.10;96.50;;;;;;4917108;29;20111;-89
2022/03/11 06:35:32;;;;;;;12.52;7.20;;;4.10;96.50;;;;;;4917291;29;20040;-88
2022/03/11 06:37:58;;;;;;;10.32;6.95;;;4.00;96.50;;;;;;4933919;29;20040;-84
2022/03/11 06:40:24;;;;;;;12.25;6.93;;;4.10;96.60;;;;;;4916214;29;20020;-87
2022/03/11 06:42:50;;;;;;;11.48;7.18;;;4.10;96.70;;;;;;4932331;29;20024;-90
2022/03/11 06:45:18;;;;;;;11.70;7.07;;;4.10;96.70;;;;;;4934735;29;20017;-85
2022/03/11 06:47:45;;;;;;;13.18;7.13;;;4.10;96.70;;;;;;4930648;29;20036;-85
2022/03/11 06:50:11;;;;;;;12.32;7.60;;;4.20;96.80;;;;;;4917064;29;20032;-88
2022/03/11 06:52:37;;;;;;;12.73;7.32;;;4.20;96.70;;;;;;4936270;29;20027;-88
2022/03/11 06:55:05;;;;;;;11.00;7.13;;;4.30;96.70;;;;;;4920921;29;20084;-86
2022/03/11 06:57:31;;;;;;;10.70;6.72;;;4.30;96.70;;;;;;4919296;29;20031;-87
2022/03/11 06:59:57;;;;;;;13.75;7.50;;;4.40;96.80;;;;;;4916970;29;20038;-90
2022/03/11 07:02:23;;;;;;;11.60;7.07;;;4.40;96.80;;;;;;4915485;29;20087;-91
2022/03/11 07:04:48;;;;;;;11.55;7.25;;;4.40;96.90;;;;;;4918041;29;20032;-87
2022/03/11 07:07:14;;;;;;;11.38;7.18;;;4.40;96.90;;;;;;4905239;29;20112;-87
2022/03/11 07:09:40;;;;;;;13.63;7.70;;;4.50;96.90;;;;;;4903368;29;20036;-87
2022/03/11 07:12:06;;;;;;;10.30;6.68;;;4.50;97.00;;;;;;4903266;29;20123;-89
2022/03/11 07:14:35;;;;;;;13.18;7.85;;;4.60;96.90;;;;;;4913594;29;20134;-87
2022/03/11 07:17:05;;;;;;;11.27;6.65;;;4.60;96.90;;;;;;4923385;29;20028;-87
2022/03/11 07:19:33;;;;;;;11.88;7.65;;;4.70;96.90;;;;;;4902925;29;20077;-87
2022/03/11 07:22:01;;;;;;;14.00;7.65;;;4.70;96.90;;;;;;4919364;29;20043;-88
2022/03/11 07:24:27;;;;;;;11.93;7.10;;;4.80;96.80;;;;;;4901932;29;20510;-86
2022/03/11 07:26:53;;;;;;;12.90;7.75;;;4.90;96.90;;;;;;4902308;29;20032;-87
2022/03/11 07:29:19;;;;;;;11.45;7.28;;;5.00;96.90;;;;;;4887802;29;20041;-89
2022/03/11 07:31:45;;;;;;;12.00;7.43;;;5.10;97.10;;;;;;4885515;29;20040;-88
2022/03/11 07:34:11;;;;;;;11.77;7.10;;;5.20;97.10;;;;;;4897551;29;20036;-89
2022/03/11 07:36:37;;;;;;;11.52;7.45;;;5.30;96.80;;;;;;4898283;29;20044;-87
2022/03/11 07:39:04;;;;;;;11.73;7.10;;;5.40;96.80;;;;;;4917656;29;20372;-88
2022/03/11 07:41:32;;;;;;;14.02;9.05;;;5.60;96.70;;;;;;4902180;29;20441;-84
2022/03/11 07:43:58;;;;;;;15.85;9.88;;;5.70;96.60;;;;;;4900188;29;20140;-84
2022/03/11 07:46:24;;;;;;;14.38;9.15;;;5.90;96.50;;;;;;4911929;29;20030;-92
2022/03/11 07:48:53;;;;;;;16.90;9.93;;;6.00;96.30;;;;;;4916423;29;20036;-91
2022/03/11 07:51:22;;;;;;;15.85;10.57;;;6.20;96.10;;;;;;4893149;29;20129;-88
2022/03/11 07:53:47;;;;;;;15.65;9.20;;;6.30;95.70;;;;;;4903816;29;20055;-91
2022/03/11 07:56:14;;;;;;;15.38;9.70;;;6.40;95.70;;;;;;4910491;29;20028;-88
2022/03/11 07:58:46;;;;;;;16.08;10.65;;;6.60;95.70;;;;;;4900644;29;20045;-88
2022/03/11 08:01:12;;;;;;;17.40;10.25;;;6.60;95.40;;;;;;4885819;29;20048;-89
2022/03/11 08:03:41;;;;;;;18.90;11.60;;;6.70;95.10;;;;;;4884062;29;20032;-89
2022/03/11 08:06:08;;;;;;;17.27;11.55;;;6.80;94.50;;;;;;4902821;29;20104;-88
2022/03/11 08:08:34;;;;;;;19.42;11.68;;;6.90;94.50;;;;;;4891051;29;20040;-88
2022/03/11 08:11:00;;;;;;;21.15;12.00;;;7.00;93.90;;;;;;4905311;29;20021;-90
2022/03/11 08:13:26;;;;;;;18.30;11.77;;;7.00;93.80;;;;;;4905658;29;20059;-91
2022/03/11 08:15:53;;;;;;;18.67;12.05;;;7.10;93.70;;;;;;4904376;29;20108;-91
2022/03/11 08:18:19;;;;;;;20.60;12.55;;;7.10;92.90;;;;;;4922344;29;20028;-91
2022/03/11 08:20:45;;;;;;;18.50;12.05;;;7.20;92.70;;;;;;4906319;29;20025;-88
2022/03/11 08:23:10;;;;;;;17.17;11.40;;;7.30;92.90;;;;;;4912298;29;20045;-86
2022/03/11 08:25:36;;;;;;;19.73;12.90;;;7.40;93.00;;;;;;4885629;29;20057;-86
2022/03/11 08:28:04;;;;;;;19.98;12.68;;;7.40;92.50;;;;;;4885318;29;20139;-86
2022/03/11 08:30:31;;;;;;;20.45;11.45;;;7.50;92.30;;;;;;4885422;29;20043;-85
2022/03/11 08:32:57;;;;;;;17.75;10.93;;;7.50;93.00;;;;;;4884605;29;20394;-86
2022/03/11 08:35:24;;;;;;;22.35;13.32;;;7.50;92.80;;;;;;4899299;29;20040;-84
2022/03/11 08:37:49;;;;;;;21.50;13.27;;;7.60;92.20;;;;;;4900393;29;20514;-88
2022/03/11 08:40:27;;;;;;;21.52;13.25;;;7.70;91.60;;;;;;4904100;29;20033;-90
2022/03/11 08:42:53;;;;;;;21.20;12.68;;;7.70;91.60;;;;;;4889225;29;20047;-88
2022/03/11 08:45:21;;;;;;;21.00;13.52;;;7.80;91.80;;;;;;4888066;29;20036;-85
2022/03/11 08:47:48;;;;;;;19.50;12.52;;;7.90;91.40;;;;;;4883136;29;20079;-85
2022/03/11 08:50:14;;;;;;;25.08;14.35;;;8.00;91.50;;;;;;4901478;29;20172;-85
2022/03/11 08:52:40;;;;;;;21.30;13.32;;;8.00;91.30;;;;;;4884556;29;20045;-85
2022/03/11 08:55:07;;;;;;;21.40;13.40;;;8.10;91.10;;;;;;4884093;29;20047;-84
2022/03/11 08:57:35;;;;;;;18.25;12.73;;;8.20;90.80;;;;;;4885449;29;20551;-83
2022/03/11 09:00:03;;;;;;;20.58;13.07;;;8.30;91.30;;;;;;4884320;29;20043;-83
2022/03/11 09:02:29;;;;;;;22.50;13.15;;;8.30;91.40;;;;;;4901484;29;20029;-85
2022/03/11 09:04:55;;;;;;;18.13;12.52;;;8.40;91.20;;;;;;4899599;29;20037;-84
2022/03/11 09:07:28;;;;;;;18.52;12.07;;;8.50;91.50;;;;;;4883911;29;20029;-83
2022/03/11 09:09:54;;;;;;;;;;;8.50;91.50;;;;;;4900005;29;20068;-84
2022/03/11 09:12:20;;;;;;;18.48;12.60;;;8.50;91.70;;;;;;4900598;29;19914;-85
2022/03/11 09:14:45;;;;;;;28.35;16.55;;;8.60;91.60;;;;;;4900711;29;20484;-85
2022/03/11 09:17:11;;;;;;;23.75;15.02;;;8.70;90.50;;;;;;4883561;29;20116;-84
2022/03/11 09:19:36;;;;;;;19.08;13.70;;;8.70;90.60;;;;;;4883812;29;20067;-85
2022/03/11 09:22:02;;;;;;;17.08;12.32;;;8.80;90.60;;;;;;4883720;29;20127;-85
2022/03/11 09:24:28;;;;;;;21.70;14.45;;;8.80;91.00;;;;;;4900939;29;20436;-85
2022/03/11 09:26:53;;;;;;;19.67;13.63;;;9.00;90.70;;;;;;4901200;29;20036;-86
2022/03/11 09:29:19;;;;;;;21.95;14.38;;;9.00;90.70;;;;;;4884415;29;20551;-88
2022/03/11 09:31:45;;;;;;;21.98;14.32;;;9.10;90.70;;;;;;4885112;29;20037;-88
2022/03/11 09:34:10;;;;;;;22.63;14.98;;;9.10;89.00;;;;;;4900895;29;20068;-87
2022/03/11 09:36:36;;;;;;;24.10;15.13;;;9.20;89.80;;;;;;4884864;29;20044;-89
2022/03/11 09:39:02;;;;;;;20.38;13.30;;;9.50;90.00;;;;;;4884858;29;20053;-87
2022/03/11 09:41:28;;;;;;;19.70;12.57;;;10.60;90.10;;;;;;4884771;29;20033;-88
2022/03/11 09:43:56;;;;;;;21.45;13.10;;;12.30;89.10;;;;;;4883873;29;20092;-85
2022/03/11 09:46:21;;;;;;;21.25;13.98;;;13.60;86.70;;;;;;4883601;29;20032;-86
2022/03/11 09:48:47;;;;;;;19.13;13.00;;;14.70;83.00;;;;;;4900321;29;20044;-86
2022/03/11 09:51:15;;;;;;;19.95;13.23;;;15.50;80.60;;;;;;4883566;29;20033;-86
2022/03/11 09:53:42;;;;;;;24.15;15.65;;;16.20;78.50;;;;;;4883495;29;20037;-86
2022/03/11 09:56:08;;;;;;;19.20;15.32;;;16.50;71.50;;;;;;4900002;29;20037;-86
2022/03/11 09:58:33;;;;;;;20.23;13.70;;;16.70;72.80;;;;;;4883324;29;20063;-86
2022/03/11 10:01:00;;;;;;;21.00;15.13;;;16.90;73.00;;;;;;4899738;29;20036;-86
2022/03/11 10:03:29;;;;;;;17.92;12.90;;;17.20;71.00;;;;;;4882831;29;20399;-86
2022/03/11 10:05:55;;;;;;;21.13;14.80;;;17.60;71.90;;;;;;4883171;29;20028;-85
2022/03/11 10:08:35;;;;;;;20.05;15.63;;;18.00;69.10;;;;;;4900265;29;20484;-86
2022/03/11 10:11:27;;;;;;;21.27;14.77;;;17.80;68.20;;;;;;4883340;29;20029;-86
2022/03/11 10:14:13;;;;;;;21.05;15.65;;;17.90;66.00;;;;;;4883245;29;20104;-86
2022/03/11 10:16:40;;;;;;;22.83;15.45;;;17.60;65.40;;;;;;4897783;29;20043;-86
2022/03/11 10:19:09;;;;;;;18.85;14.07;;;17.30;65.90;;;;;;4899577;29;20393;-86
2022/03/11 10:21:44;;;;;;;17.77;13.57;;;17.50;67.50;;;;;;4898223;29;20124;-85
2022/03/11 10:24:12;;;;;;;17.85;12.25;;;17.90;67.60;;;;;;4898430;29;20062;-85
2022/03/11 10:26:41;;;;;;;19.98;15.15;;;18.30;67.80;;;;;;4883001;29;20040;-85
2022/03/11 10:29:12;;;;;;;20.85;15.27;;;18.70;64.70;;;;;;4882339;29;20029;-85
2022/03/11 10:31:40;;;;;;;19.75;15.50;;;18.70;64.30;;;;;;4883571;29;20028;-85
2022/03/11 10:34:20;;;;;;;20.38;15.55;;;18.50;64.00;;;;;;4866994;29;20032;-85
2022/03/11 10:37:12;;;;;;;18.60;12.20;;;18.60;65.40;;;;;;4882202;29;20033;-86
2022/03/11 10:39:42;;;;;;;17.90;14.50;;;19.10;65.40;;;;;;4897841;29;20201;-85
2022/03/11 10:42:16;;;;;;;22.73;15.60;;;19.20;63.10;;;;;;4899313;29;20033;-86
2022/03/11 10:44:53;;;;;;;19.08;14.77;;;19.30;62.80;;;;;;4882033;29;20511;-86
2022/03/11 10:47:30;;;;;;;22.13;15.63;;;19.10;62.30;;;;;;4899000;29;20040;-86
2022/03/11 10:49:59;;;;;;;21.38;15.45;;;18.80;62.30;;;;;;4882530;29;20493;-86
2022/03/11 10:52:44;;;;;;;17.98;13.55;;;18.70;62.40;;;;;;4899091;29;20467;-85
2022/03/11 10:55:19;;;;;;;16.08;12.13;;;18.90;63.60;;;;;;4881741;29;20131;-85
2022/03/11 10:57:46;;;;;;;20.38;13.90;;;19.50;64.50;;;;;;4881770;29;20096;-85
2022/03/11 11:00:27;;;;;;;16.80;12.23;;;19.80;63.30;;;;;;4898575;29;20124;-86
2022/03/11 11:03:13;;;;;;;16.00;12.07;;;20.30;63.90;;;;;;4881095;29;20039;-84
2022/03/11 11:05:39;;;;;;;20.63;14.45;;;20.60;63.00;;;;;;4882166;29;20029;-85
2022/03/11 11:08:06;;;;;;;21.65;15.23;;;20.40;61.30;;;;;;4882283;29;20040;-85
2022/03/11 11:10:36;;;;;;;19.20;15.02;;;20.20;60.80;;;;;;4898961;29;20471;-85
2022/03/11 11:13:02;;;;;;;21.75;15.25;;;20.10;61.20;;;;;;4881709;29;20139;-85
2022/03/11 11:15:28;;;;;;;17.52;14.05;;;20.10;60.40;;;;;;4881708;29;20202;-85
2022/03/11 11:17:54;;;;;;;17.77;13.88;;;19.80;61.20;;;;;;4881638;29;20143;-85
2022/03/11 11:20:45;;;;;;;22.95;15.02;;;19.80;61.20;;;;;;4898707;29;20037;-86
2022/03/11 11:23:11;;;;;;;20.20;15.57;;;19.80;61.60;;;;;;4898608;29;20041;-85
2022/03/11 11:25:38;;;;;;;18.23;13.05;;;20.00;61.30;;;;;;4898342;29;20076;-85
2022/03/11 11:28:17;;;;;;;17.17;12.63;;;20.20;62.00;;;;;;4882085;29;20040;-85
2022/03/11 11:30:45;;;;;;;18.55;12.73;;;20.60;62.60;;;;;;4884762;29;20044;-86
2022/03/11 11:33:13;;;;;;;18.05;14.48;;;20.90;61.80;;;;;;4886423;29;20056;-87
2022/03/11 11:35:40;;;;;;;18.92;14.85;;;21.00;61.00;;;;;;4885253;29;20089;-85
2022/03/11 11:38:27;;;;;;;20.45;14.73;;;20.90;59.80;;;;;;4883886;29;20075;-84
2022/03/11 11:40:54;;;;;;;16.52;13.45;;;20.80;58.80;;;;;;4904034;29;20035;-87
2022/03/11 11:43:26;;;;;;;19.45;14.23;;;20.80;60.70;;;;;;4935884;29;20031;-88
2022/03/11 11:45:55;;;;;;;20.92;15.55;;;20.90;60.20;;;;;;4921863;29;20388;-87
2022/03/11 11:48:33;;;;;;;17.60;13.98;;;20.80;58.20;;;;;;4937096;29;20477;-87
2022/03/11 11:51:05;;;;;;;19.92;15.27;;;20.30;58.90;;;;;;4917871;29;20107;-88
2022/03/11 11:53:42;;;;;;;19.52;16.00;;;20.20;59.00;;;;;;4936546;29;20487;-85
2022/03/11 11:56:30;;;;;;;17.73;14.75;;;20.20;59.20;;;;;;4920567;29;20039;-86
2022/03/11 11:58:58;;;;;;;25.00;16.85;;;20.20;59.40;;;;;;4938937;29;20071;-89
2022/03/11 12:01:39;;;;;;;17.77;14.40;;;20.30;59.60;;;;;;4941611;29;20032;-87
2022/03/11 12:04:35;;;;;;;16.75;13.45;;;20.40;59.30;;;;;;4940317;29;20035;-85
2022/03/11 12:07:03;;;;;;;19.23;13.25;;;20.60;61.10;;;;;;4905594;29;20115;-87
2022/03/11 12:09:38;;;;;;;19.65;13.65;;;20.80;61.30;;;;;;4916218;29;20039;-88
2022/03/11 12:12:04;;;;;;;16.83;12.50;;;21.10;59.50;;;;;;4934897;29;20131;-88
2022/03/11 12:14:30;;;;;;;19.48;15.10;;;21.40;61.00;;;;;;4918587;29;20553;-88
2022/03/11 12:17:13;;;;;;;17.08;13.35;;;21.80;58.50;;;;;;4937150;29;20064;-86
2022/03/11 12:19:46;;;;;;;14.60;11.25;;;22.00;59.80;;;;;;4919567;29;20136;-89
2022/03/11 12:22:23;;;;;;;13.57;11.15;;;22.20;61.10;;;;;;4921882;29;20480;-92
2022/03/11 12:25:00;;;;;;;19.15;13.23;;;22.60;61.80;;;;;;4919702;29;20066;-89
2022/03/11 12:28:03;;;;;;;16.17;13.02;;;23.10;61.10;;;;;;4915938;29;20043;-85
2022/03/11 12:30:38;;;;;;;21.23;14.48;;;23.00;59.10;;;;;;4917050;29;20103;-86
2022/03/11 12:33:13;;;;;;;17.73;13.75;;;22.90;59.80;;;;;;4934594;29;20036;-85
2022/03/11 12:35:39;;;;;;;21.33;15.55;;;22.60;57.90;;;;;;4936649;29;20062;-88
2022/03/11 12:38:10;;;;;;;20.92;14.20;;;22.10;57.40;;;;;;4922478;29;20387;-88
2022/03/11 12:40:36;;;;;;;17.15;12.45;;;21.70;59.70;;;;;;4923617;29;20020;-89
2022/03/11 12:43:04;;;;;;;17.48;13.00;;;21.90;61.30;;;;;;4921528;29;20047;-89